sensor_id;sensor_type;location;lat;lon;timestamp;pressure;altitude;pressure_sealevel;temperature;humidity
76732;BME280;65656;51.130;13.658;2023-05-27T00:01:38;100438.38;;;6.92;97.26
76732;BME280;65656;51.130;13.658;2023-05-27T00:05:39;100441.25;;;6.77;97.58
76732;BME280;65656;51.130;13.658;2023-05-27T00:09:42;100427.75;;;6.62;98.38
76732;BME280;65656;51.130;13.658;2023-05-27T00:13:44;100430.94;;;6.45;99.03
76732;BME280;65656;51.130;13.658;2023-05-27T00:17:45;100443.66;;;6.37;99.86
76732;BME280;65656;51.130;13.658;2023-05-27T00:21:47;100436.91;;;6.27;99.66
76732;BME280;65656;51.130;13.658;2023-05-27T00:25:50;100426.78;;;6.21;100.00
76732;BME280;65656;51.130;13.658;2023-05-27T00:29:52;100429.44;;;6.14;100.00
76732;BME280;65656;51.130;13.658;2023-05-27T00:33:53;100431.09;;;6.08;100.00
76732;BME280;65656;51.130;13.658;2023-05-27T00:37:55;100428.97;;;6.04;100.00
76732;BME280;65656;51.130;13.658;2023-05-27T00:41:58;100427.28;;;6.03;100.00
76732;BME280;65656;51.130;13.658;2023-05-27T00:46:00;100432.22;;;5.93;100.00
76732;BME280;65656;51.130;13.658;2023-05-27T00:50:02;100431.88;;;6.02;100.00
76732;BME280;65656;51.130;13.658;2023-05-27T00:54:05;100433.56;;;6.03;100.00
76732;BME280;65656;51.130;13.658;2023-05-27T00:58:08;100433.06;;;5.93;100.00
76732;BME280;65656;51.130;13.658;2023-05-27T01:02:10;100438.41;;;5.86;100.00
76732;BME280;65656;51.130;13.658;2023-05-27T01:06:17;100427.84;;;5.77;100.00
76732;BME280;65656;51.130;13.658;2023-05-27T01:10:26;100431.97;;;5.73;100.00
76732;BME280;65656;51.130;13.658;2023-05-27T01:14:33;100432.75;;;5.67;100.00
76732;BME280;65656;51.130;13.658;2023-05-27T01:18:35;100428.75;;;5.63;100.00
76732;BME280;65656;51.130;13.658;2023-05-27T01:22:39;100435.34;;;5.53;100.00
76732;BME280;65656;51.130;13.658;2023-05-27T01:26:41;100426.28;;;5.68;100.00
76732;BME280;65656;51.130;13.658;2023-05-27T01:30:42;100424.53;;;5.60;100.00
76732;BME280;65656;51.130;13.658;2023-05-27T01:35:00;100423.94;;;5.65;100.00
76732;BME280;65656;51.130;13.658;2023-05-27T01:39:07;100427.44;;;5.80;100.00
76732;BME280;65656;51.130;13.658;2023-05-27T01:43:11;100417.06;;;5.90;100.00
76732;BME280;65656;51.130;13.658;2023-05-27T01:47:13;100410.78;;;5.90;100.00
76732;BME280;65656;51.130;13.658;2023-05-27T01:51:15;100409.06;;;5.82;100.00
76732;BME280;65656;51.130;13.658;2023-05-27T01:55:18;100404.72;;;5.66;100.00
76732;BME280;65656;51.130;13.658;2023-05-27T01:59:19;100405.06;;;5.56;100.00
76732;BME280;65656;51.130;13.658;2023-05-27T02:03:21;100404.78;;;5.51;100.00
76732;BME280;65656;51.130;13.658;2023-05-27T02:07:23;100414.50;;;5.39;100.00
76732;BME280;65656;51.130;13.658;2023-05-27T02:11:26;100416.78;;;5.21;100.00
76732;BME280;65656;51.130;13.658;2023-05-27T02:15:28;100403.38;;;5.19;100.00
76732;BME280;65656;51.130;13.658;2023-05-27T02:19:29;100405.56;;;5.09;100.00
76732;BME280;65656;51.130;13.658;2023-05-27T02:23:31;100401.47;;;4.98;100.00
76732;BME280;65656;51.130;13.658;2023-05-27T02:27:34;100401.09;;;5.01;100.00
76732;BME280;65656;51.130;13.658;2023-05-27T02:31:35;100406.63;;;4.93;100.00
76732;BME280;65656;51.130;13.658;2023-05-27T02:35:37;100404.56;;;4.81;100.00
76732;BME280;65656;51.130;13.658;2023-05-27T02:39:40;100408.59;;;4.99;100.00
76732;BME280;65656;51.130;13.658;2023-05-27T02:43:43;100413.63;;;5.02;100.00
76732;BME280;65656;51.130;13.658;2023-05-27T02:47:45;100415.47;;;5.17;100.00
76732;BME280;65656;51.130;13.658;2023-05-27T02:51:46;100419.22;;;5.16;100.00
76732;BME280;65656;51.130;13.658;2023-05-27T02:55:49;100420.91;;;5.17;100.00
76732;BME280;65656;51.130;13.658;2023-05-27T02:59:52;100414.06;;;5.21;100.00
76732;BME280;65656;51.130;13.658;2023-05-27T03:03:53;100418.09;;;5.25;100.00
76732;BME280;65656;51.130;13.658;2023-05-27T03:07:55;100408.06;;;5.25;100.00
76732;BME280;65656;51.130;13.658;2023-05-27T03:11:57;100421.59;;;5.40;100.00
76732;BME280;65656;51.130;13.658;2023-05-27T03:16:00;100417.22;;;5.39;100.00
76732;BME280;65656;51.130;13.658;2023-05-27T03:20:02;100406.66;;;5.51;100.00
76732;BME280;65656;51.130;13.658;2023-05-27T03:24:03;100413.31;;;5.48;100.00
76732;BME280;65656;51.130;13.658;2023-05-27T03:28:05;100408.66;;;5.42;100.00
76732;BME280;65656;51.130;13.658;2023-05-27T03:32:08;100414.84;;;5.36;100.00
76732;BME280;65656;51.130;13.658;2023-05-27T03:36:10;100418.09;;;5.25;100.00
76732;BME280;65656;51.130;13.658;2023-05-27T03:40:12;100413.94;;;5.29;100.00
76732;BME280;65656;51.130;13.658;2023-05-27T03:44:13;100418.69;;;5.42;100.00
76732;BME280;65656;51.130;13.658;2023-05-27T03:48:16;100410.72;;;5.40;100.00
76732;BME280;65656;51.130;13.658;2023-05-27T03:52:18;100420.25;;;5.29;100.00
76732;BME280;65656;51.130;13.658;2023-05-27T03:56:19;100416.78;;;5.21;100.00
76732;BME280;65656;51.130;13.658;2023-05-27T04:00:21;100412.75;;;5.17;100.00
76732;BME280;65656;51.130;13.658;2023-05-27T04:04:24;100409.66;;;5.20;100.00
76732;BME280;65656;51.130;13.658;2023-05-27T04:08:26;100405.84;;;5.14;100.00
76732;BME280;65656;51.130;13.658;2023-05-27T04:12:27;100415.09;;;5.20;100.00
76732;BME280;65656;51.130;13.658;2023-05-27T04:16:29;100412.94;;;5.30;100.00
76732;BME280;65656;51.130;13.658;2023-05-27T04:20:36;100417.84;;;5.41;100.00
76732;BME280;65656;51.130;13.658;2023-05-27T04:24:38;100404.66;;;5.59;100.00
76732;BME280;65656;51.130;13.658;2023-05-27T04:28:40;100406.94;;;5.77;100.00
76732;BME280;65656;51.130;13.658;2023-05-27T04:32:41;100412.84;;;6.02;100.00
76732;BME280;65656;51.130;13.658;2023-05-27T04:36:45;100424.13;;;6.27;100.00
76732;BME280;65656;51.130;13.658;2023-05-27T04:40:46;100418.03;;;6.53;100.00
76732;BME280;65656;51.130;13.658;2023-05-27T04:44:48;100419.88;;;6.81;100.00
76732;BME280;65656;51.130;13.658;2023-05-27T04:48:49;100418.94;;;7.02;100.00
76732;BME280;65656;51.130;13.658;2023-05-27T04:52:52;100427.19;;;7.21;100.00
76732;BME280;65656;51.130;13.658;2023-05-27T04:56:54;100417.06;;;7.63;100.00
76732;BME280;65656;51.130;13.658;2023-05-27T05:00:55;100426.53;;;7.80;100.00
76732;BME280;65656;51.130;13.658;2023-05-27T05:04:57;100417.31;;;7.95;100.00
76732;BME280;65656;51.130;13.658;2023-05-27T05:09:00;100420.25;;;8.06;100.00
76732;BME280;65656;51.130;13.658;2023-05-27T05:13:02;100429.94;;;8.35;100.00
76732;BME280;65656;51.130;13.658;2023-05-27T05:17:04;100425.28;;;8.62;100.00
76732;BME280;65656;51.130;13.658;2023-05-27T05:21:06;100430.34;;;8.59;100.00
76732;BME280;65656;51.130;13.658;2023-05-27T05:25:09;100428.63;;;8.71;100.00
76732;BME280;65656;51.130;13.658;2023-05-27T05:29:10;100426.06;;;8.89;99.85
76732;BME280;65656;51.130;13.658;2023-05-27T05:33:12;100439.03;;;9.14;97.70
76732;BME280;65656;51.130;13.658;2023-05-27T05:37:13;100440.66;;;9.28;97.83
76732;BME280;65656;51.130;13.658;2023-05-27T05:41:16;100440.41;;;9.36;98.11
76732;BME280;65656;51.130;13.658;2023-05-27T05:45:18;100439.28;;;9.51;97.09
76732;BME280;65656;51.130;13.658;2023-05-27T05:49:20;100443.00;;;9.63;95.03
76732;BME280;65656;51.130;13.658;2023-05-27T05:53:21;100443.19;;;9.99;95.45
76732;BME280;65656;51.130;13.658;2023-05-27T05:57:24;100449.28;;;10.33;90.89
76732;BME280;65656;51.130;13.658;2023-05-27T06:01:26;100456.13;;;10.17;90.81
76732;BME280;65656;51.130;13.658;2023-05-27T06:05:27;100454.47;;;10.41;90.79
76732;BME280;65656;51.130;13.658;2023-05-27T06:09:29;100460.50;;;10.50;92.30
76732;BME280;65656;51.130;13.658;2023-05-27T06:13:32;100464.31;;;10.49;90.32
76732;BME280;65656;51.130;13.658;2023-05-27T06:17:33;100468.84;;;10.62;91.47
76732;BME280;65656;51.130;13.658;2023-05-27T06:21:35;100469.53;;;10.82;85.52
76732;BME280;65656;51.130;13.658;2023-05-27T06:25:37;100458.56;;;10.82;87.21
76732;BME280;65656;51.130;13.658;2023-05-27T06:29:40;100458.22;;;10.72;84.07
76732;BME280;65656;51.130;13.658;2023-05-27T06:33:41;100467.50;;;10.71;86.52
76732;BME280;65656;51.130;13.658;2023-05-27T06:37:43;100468.75;;;11.11;82.98
76732;BME280;65656;51.130;13.658;2023-05-27T06:41:48;100474.56;;;11.22;83.45
76732;BME280;65656;51.130;13.658;2023-05-27T06:45:51;100465.50;;;11.39;84.13
76732;BME280;65656;51.130;13.658;2023-05-27T06:50:05;100457.66;;;11.06;81.93
76732;BME280;65656;51.130;13.658;2023-05-27T06:54:07;100449.22;;;11.56;86.11
76732;BME280;65656;51.130;13.658;2023-05-27T06:58:08;100459.53;;;11.42;84.37
76732;BME280;65656;51.130;13.658;2023-05-27T07:02:11;100449.81;;;11.58;82.29
76732;BME280;65656;51.130;13.658;2023-05-27T07:06:13;100447.06;;;11.58;82.01
76732;BME280;65656;51.130;13.658;2023-05-27T07:10:14;100452.78;;;12.05;81.80
76732;BME280;65656;51.130;13.658;2023-05-27T07:14:16;100461.50;;;12.02;80.51
76732;BME280;65656;51.130;13.658;2023-05-27T07:18:19;100451.63;;;12.24;81.27
76732;BME280;65656;51.130;13.658;2023-05-27T07:22:20;100440.94;;;11.93;78.72
76732;BME280;65656;51.130;13.658;2023-05-27T07:26:22;100441.72;;;12.23;80.10
76732;BME280;65656;51.130;13.658;2023-05-27T07:30:24;100443.81;;;12.63;77.43
76732;BME280;65656;51.130;13.658;2023-05-27T07:34:27;100445.81;;;12.44;77.10
76732;BME280;65656;51.130;13.658;2023-05-27T07:38:28;100446.91;;;12.55;79.04
76732;BME280;65656;51.130;13.658;2023-05-27T07:42:30;100443.06;;;12.91;79.04
76732;BME280;65656;51.130;13.658;2023-05-27T07:46:34;100441.88;;;12.75;74.95
76732;BME280;65656;51.130;13.658;2023-05-27T07:50:37;100441.72;;;12.35;76.78
76732;BME280;65656;51.130;13.658;2023-05-27T07:54:38;100443.16;;;12.26;76.17
76732;BME280;65656;51.130;13.658;2023-05-27T07:58:55;100434.66;;;12.27;74.42
76732;BME280;65656;51.130;13.658;2023-05-27T08:02:56;100434.69;;;12.74;74.81
76732;BME280;65656;51.130;13.658;2023-05-27T08:07:00;100434.81;;;12.91;74.28
76732;BME280;65656;51.130;13.658;2023-05-27T08:11:01;100423.81;;;12.91;75.63
76732;BME280;65656;51.130;13.658;2023-05-27T08:15:03;100425.94;;;13.24;73.51
76732;BME280;65656;51.130;13.658;2023-05-27T08:19:05;100409.78;;;13.16;69.42
76732;BME280;65656;51.130;13.658;2023-05-27T08:23:08;100406.69;;;13.81;70.71
76732;BME280;65656;51.130;13.658;2023-05-27T08:27:15;100400.13;;;13.99;70.13
76732;BME280;65656;51.130;13.658;2023-05-27T08:31:18;100395.03;;;14.08;68.40
76732;BME280;65656;51.130;13.658;2023-05-27T08:35:20;100397.88;;;14.13;72.61
76732;BME280;65656;51.130;13.658;2023-05-27T08:39:23;100393.22;;;14.47;70.61
76732;BME280;65656;51.130;13.658;2023-05-27T08:43:24;100397.69;;;14.70;70.18
76732;BME280;65656;51.130;13.658;2023-05-27T08:47:28;100395.16;;;13.84;67.79
76732;BME280;65656;51.130;13.658;2023-05-27T08:51:30;100380.56;;;13.84;67.07
76732;BME280;65656;51.130;13.658;2023-05-27T08:55:33;100374.47;;;13.99;68.57
76732;BME280;65656;51.130;13.658;2023-05-27T08:59:35;100368.97;;;13.99;71.87
76732;BME280;65656;51.130;13.658;2023-05-27T09:03:38;100371.31;;;14.23;66.94
76732;BME280;65656;51.130;13.658;2023-05-27T09:07:39;100366.97;;;14.44;68.06
76732;BME280;65656;51.130;13.658;2023-05-27T09:11:42;100366.47;;;14.31;67.49
76732;BME280;65656;51.130;13.658;2023-05-27T09:15:45;100360.63;;;14.27;66.21
76732;BME280;65656;51.130;13.658;2023-05-27T09:19:46;100356.53;;;14.30;66.85
76732;BME280;65656;51.130;13.658;2023-05-27T09:23:48;100354.75;;;14.74;67.99
76732;BME280;65656;51.130;13.658;2023-05-27T09:27:51;100349.75;;;14.71;64.10
76732;BME280;65656;51.130;13.658;2023-05-27T09:31:53;100351.00;;;14.85;64.55
76732;BME280;65656;51.130;13.658;2023-05-27T09:35:55;100354.75;;;14.74;61.99
76732;BME280;65656;51.130;13.658;2023-05-27T09:39:57;100345.41;;;14.41;60.72
76732;BME280;65656;51.130;13.658;2023-05-27T09:43:59;100352.28;;;14.77;58.21
76732;BME280;65656;51.130;13.658;2023-05-27T09:48:01;100340.72;;;14.59;57.47
76732;BME280;65656;51.130;13.658;2023-05-27T09:52:05;100339.34;;;14.78;56.24
76732;BME280;65656;51.130;13.658;2023-05-27T09:56:06;100327.91;;;15.35;58.26
76732;BME280;65656;51.130;13.658;2023-05-27T10:00:11;100320.41;;;15.57;56.53
76732;BME280;65656;51.130;13.658;2023-05-27T10:04:14;100312.19;;;15.63;57.23
76732;BME280;65656;51.130;13.658;2023-05-27T10:08:15;100306.44;;;15.42;58.51
76732;BME280;65656;51.130;13.658;2023-05-27T10:12:28;100306.72;;;16.00;56.31
76732;BME280;65656;51.130;13.658;2023-05-27T10:16:31;100302.22;;;15.62;55.27
76732;BME280;65656;51.130;13.658;2023-05-27T10:20:34;100300.41;;;15.72;56.03
76732;BME280;65656;51.130;13.658;2023-05-27T10:24:36;100298.16;;;16.01;55.66
76732;BME280;65656;51.130;13.658;2023-05-27T10:28:38;100306.66;;;15.63;54.64
76732;BME280;65656;51.130;13.658;2023-05-27T10:32:47;100303.16;;;16.04;54.08
76732;BME280;65656;51.130;13.658;2023-05-27T10:36:58;100298.97;;;16.39;52.16
76732;BME280;65656;51.130;13.658;2023-05-27T10:41:01;100288.25;;;16.53;50.92
76732;BME280;65656;51.130;13.658;2023-05-27T10:45:05;100293.53;;;16.54;52.88
76732;BME280;65656;51.130;13.658;2023-05-27T10:49:13;100295.50;;;16.16;51.18
76732;BME280;65656;51.130;13.658;2023-05-27T10:53:16;100288.19;;;16.37;52.64
76732;BME280;65656;51.130;13.658;2023-05-27T10:57:19;100282.56;;;16.69;51.09
76732;BME280;65656;51.130;13.658;2023-05-27T11:01:24;100279.91;;;16.95;51.50
76732;BME280;65656;51.130;13.658;2023-05-27T11:05:31;100271.41;;;16.54;49.80
76732;BME280;65656;51.130;13.658;2023-05-27T11:09:42;100273.34;;;17.21;49.21
76732;BME280;65656;51.130;13.658;2023-05-27T11:13:45;100261.59;;;16.84;49.26
76732;BME280;65656;51.130;13.658;2023-05-27T11:17:50;100265.53;;;16.98;49.38
76732;BME280;65656;51.130;13.658;2023-05-27T11:21:53;100261.88;;;16.87;52.76
76732;BME280;65656;51.130;13.658;2023-05-27T11:25:55;100255.63;;;17.22;49.03
76732;BME280;65656;51.130;13.658;2023-05-27T11:29:56;100240.97;;;17.47;49.63
76732;BME280;65656;51.130;13.658;2023-05-27T11:33:58;100239.56;;;18.36;47.41
76732;BME280;65656;51.130;13.658;2023-05-27T11:38:01;100244.38;;;17.75;46.40
76732;BME280;65656;51.130;13.658;2023-05-27T11:42:05;100235.19;;;17.44;45.18
76732;BME280;65656;51.130;13.658;2023-05-27T11:46:07;100236.31;;;17.73;46.83
76732;BME280;65656;51.130;13.658;2023-05-27T11:50:09;100225.78;;;17.70;46.52
76732;BME280;65656;51.130;13.658;2023-05-27T11:54:19;100212.44;;;17.62;45.24
76732;BME280;65656;51.130;13.658;2023-05-27T11:58:21;100200.81;;;17.96;46.46
76732;BME280;65656;51.130;13.658;2023-05-27T12:02:22;100206.81;;;18.33;46.10
76732;BME280;65656;51.130;13.658;2023-05-27T12:06:24;100202.63;;;18.41;42.49
76732;BME280;65656;51.130;13.658;2023-05-27T12:10:27;100193.53;;;19.34;43.39
76732;BME280;65656;51.130;13.658;2023-05-27T12:14:29;100186.63;;;18.87;41.39
76732;BME280;65656;51.130;13.658;2023-05-27T12:18:30;100174.28;;;19.09;42.54
76732;BME280;65656;51.130;13.658;2023-05-27T12:22:32;100178.69;;;19.15;43.03
76732;BME280;65656;51.130;13.658;2023-05-27T12:26:35;100174.19;;;20.40;38.59
76732;BME280;65656;51.130;13.658;2023-05-27T12:30:37;100173.72;;;20.33;39.05
76732;BME280;65656;51.130;13.658;2023-05-27T12:34:38;100166.66;;;20.17;41.52
76732;BME280;65656;51.130;13.658;2023-05-27T12:38:40;100165.34;;;20.33;40.70
76732;BME280;65656;51.130;13.658;2023-05-27T12:42:43;100155.41;;;22.38;37.32
76732;BME280;65656;51.130;13.658;2023-05-27T12:46:45;100154.03;;;21.29;38.29
76732;BME280;65656;51.130;13.658;2023-05-27T12:50:46;100144.91;;;24.76;34.06
76732;BME280;65656;51.130;13.658;2023-05-27T12:54:48;100135.44;;;23.30;36.42
76732;BME280;65656;51.130;13.658;2023-05-27T12:58:51;100137.91;;;22.73;38.28
76732;BME280;65656;51.130;13.658;2023-05-27T13:02:53;100138.81;;;21.02;37.64
76732;BME280;65656;51.130;13.658;2023-05-27T13:06:54;100132.72;;;22.80;36.81
76732;BME280;65656;51.130;13.658;2023-05-27T13:10:56;100121.00;;;26.80;29.75
76732;BME280;65656;51.130;13.658;2023-05-27T13:14:59;100121.91;;;24.39;31.52
76732;BME280;65656;51.130;13.658;2023-05-27T13:19:01;100118.53;;;27.53;27.10
76732;BME280;65656;51.130;13.658;2023-05-27T13:23:02;100110.91;;;26.20;34.00
76732;BME280;65656;51.130;13.658;2023-05-27T13:27:04;100108.97;;;25.47;30.20
76732;BME280;65656;51.130;13.658;2023-05-27T13:31:07;100102.72;;;25.24;31.61
76732;BME280;65656;51.130;13.658;2023-05-27T13:35:09;100101.94;;;25.07;31.61
76732;BME280;65656;51.130;13.658;2023-05-27T13:39:11;100098.25;;;24.14;33.64
76732;BME280;65656;51.130;13.658;2023-05-27T13:43:13;100096.03;;;23.41;32.21
76732;BME280;65656;51.130;13.658;2023-05-27T13:47:16;100093.31;;;22.55;32.82
76732;BME280;65656;51.130;13.658;2023-05-27T13:51:17;100092.94;;;24.04;32.19
76732;BME280;65656;51.130;13.658;2023-05-27T13:55:19;100080.78;;;23.02;32.28
76732;BME280;65656;51.130;13.658;2023-05-27T13:59:20;100076.91;;;25.57;30.66
76732;BME280;65656;51.130;13.658;2023-05-27T14:03:23;100072.38;;;25.00;30.90
76732;BME280;65656;51.130;13.658;2023-05-27T14:07:27;100072.56;;;23.19;34.21
76732;BME280;65656;51.130;13.658;2023-05-27T14:11:29;100049.22;;;27.94;27.85
76732;BME280;65656;51.130;13.658;2023-05-27T14:15:30;100059.13;;;23.07;33.83
76732;BME280;65656;51.130;13.658;2023-05-27T14:19:36;100051.28;;;25.03;32.01
76732;BME280;65656;51.130;13.658;2023-05-27T14:23:37;100056.09;;;23.71;33.40
76732;BME280;65656;51.130;13.658;2023-05-27T14:27:40;100045.81;;;23.04;32.77
76732;BME280;65656;51.130;13.658;2023-05-27T14:31:41;100049.09;;;23.29;33.88
76732;BME280;65656;51.130;13.658;2023-05-27T14:35:45;100042.50;;;23.96;31.89
76732;BME280;65656;51.130;13.658;2023-05-27T14:39:46;100040.22;;;24.72;31.38
76732;BME280;65656;51.130;13.658;2023-05-27T14:43:48;100031.66;;;26.64;29.18
76732;BME280;65656;51.130;13.658;2023-05-27T14:47:54;100032.06;;;25.95;30.19
76732;BME280;65656;51.130;13.658;2023-05-27T14:51:57;100022.84;;;27.41;26.89
76732;BME280;65656;51.130;13.658;2023-05-27T14:55:58;100021.09;;;26.41;31.57
76732;BME280;65656;51.130;13.658;2023-05-27T15:00:00;100021.91;;;24.74;31.44
76732;BME280;65656;51.130;13.658;2023-05-27T15:04:02;100016.09;;;28.15;25.96
76732;BME280;65656;51.130;13.658;2023-05-27T15:08:05;100013.00;;;26.39;28.32
76732;BME280;65656;51.130;13.658;2023-05-27T15:12:07;100015.50;;;25.09;29.86
76732;BME280;65656;51.130;13.658;2023-05-27T15:16:09;100007.41;;;25.63;30.61
76732;BME280;65656;51.130;13.658;2023-05-27T15:20:11;100008.47;;;24.11;31.20
76732;BME280;65656;51.130;13.658;2023-05-27T15:24:14;99996.28;;;26.63;29.02
76732;BME280;65656;51.130;13.658;2023-05-27T15:28:16;100004.44;;;26.27;29.20
76732;BME280;65656;51.130;13.658;2023-05-27T15:32:17;100006.28;;;23.51;33.18
76732;BME280;65656;51.130;13.658;2023-05-27T15:36:19;100004.44;;;22.93;33.32
76732;BME280;65656;51.130;13.658;2023-05-27T15:40:22;99991.25;;;24.87;29.48
76732;BME280;65656;51.130;13.658;2023-05-27T15:44:24;99986.66;;;26.64;27.77
76732;BME280;65656;51.130;13.658;2023-05-27T15:48:25;99990.75;;;24.41;29.55
76732;BME280;65656;51.130;13.658;2023-05-27T15:52:27;99972.72;;;26.89;27.62
76732;BME280;65656;51.130;13.658;2023-05-27T15:56:30;99978.03;;;27.36;26.96
76732;BME280;65656;51.130;13.658;2023-05-27T16:00:31;99963.38;;;26.64;27.81
76732;BME280;65656;51.130;13.658;2023-05-27T16:04:33;99967.53;;;24.32;31.50
76732;BME280;65656;51.130;13.658;2023-05-27T16:08:36;99967.69;;;22.99;31.71
76732;BME280;65656;51.130;13.658;2023-05-27T16:12:40;99965.72;;;23.00;31.98
76732;BME280;65656;51.130;13.658;2023-05-27T16:16:41;99961.63;;;22.84;33.48
76732;BME280;65656;51.130;13.658;2023-05-27T16:20:43;99958.13;;;23.62;32.60
76732;BME280;65656;51.130;13.658;2023-05-27T16:24:45;99947.34;;;25.17;29.98
76732;BME280;65656;51.130;13.658;2023-05-27T16:28:48;99952.97;;;21.49;34.64
76732;BME280;65656;51.130;13.658;2023-05-27T16:32:49;99950.97;;;21.91;36.18
76732;BME280;65656;51.130;13.658;2023-05-27T16:36:51;99939.13;;;21.44;36.14
76732;BME280;65656;51.130;13.658;2023-05-27T16:40:52;99950.91;;;20.43;37.46
76732;BME280;65656;51.130;13.658;2023-05-27T16:44:55;99949.94;;;20.34;38.28
76732;BME280;65656;51.130;13.658;2023-05-27T16:48:57;99937.84;;;20.76;37.12
76732;BME280;65656;51.130;13.658;2023-05-27T16:52:58;99936.59;;;22.11;33.66
76732;BME280;65656;51.130;13.658;2023-05-27T16:57:00;99929.09;;;20.83;37.57
76732;BME280;65656;51.130;13.658;2023-05-27T17:01:03;99932.63;;;20.37;38.02
76732;BME280;65656;51.130;13.658;2023-05-27T17:05:05;99923.53;;;20.31;38.07
76732;BME280;65656;51.130;13.658;2023-05-27T17:09:07;99919.34;;;19.54;39.98
76732;BME280;65656;51.130;13.658;2023-05-27T17:13:08;99922.66;;;19.32;41.19
76732;BME280;65656;51.130;13.658;2023-05-27T17:17:13;99919.94;;;20.12;38.31
76732;BME280;65656;51.130;13.658;2023-05-27T17:21:14;99923.22;;;19.53;39.59
76732;BME280;65656;51.130;13.658;2023-05-27T17:25:16;99916.63;;;19.25;40.10
76732;BME280;65656;51.130;13.658;2023-05-27T17:29:17;99910.47;;;19.04;40.93
76732;BME280;65656;51.130;13.658;2023-05-27T17:33:20;99917.19;;;18.98;39.84
76732;BME280;65656;51.130;13.658;2023-05-27T17:37:22;99922.03;;;18.53;41.65
76732;BME280;65656;51.130;13.658;2023-05-27T17:41:23;99919.44;;;17.88;43.89
76732;BME280;65656;51.130;13.658;2023-05-27T17:45:25;99924.31;;;17.52;44.33
76732;BME280;65656;51.130;13.658;2023-05-27T17:49:28;99915.53;;;17.24;44.62
76732;BME280;65656;51.130;13.658;2023-05-27T17:53:29;99919.22;;;17.05;44.53
76732;BME280;65656;51.130;13.658;2023-05-27T17:57:31;99918.97;;;16.91;45.77
76732;BME280;65656;51.130;13.658;2023-05-27T18:01:33;99914.56;;;16.75;46.27
76732;BME280;65656;51.130;13.658;2023-05-27T18:05:36;99907.91;;;16.60;47.93
76732;BME280;65656;51.130;13.658;2023-05-27T18:09:37;99904.03;;;16.41;49.59
76732;BME280;65656;51.130;13.658;2023-05-27T18:13:39;99908.47;;;16.27;50.14
76732;BME280;65656;51.130;13.658;2023-05-27T18:17:40;99906.22;;;16.08;50.72
76732;BME280;65656;51.130;13.658;2023-05-27T18:21:43;99905.06;;;15.84;53.99
76732;BME280;65656;51.130;13.658;2023-05-27T18:25:45;99908.88;;;15.63;59.09
76732;BME280;65656;51.130;13.658;2023-05-27T18:29:47;99896.06;;;15.36;57.51
76732;BME280;65656;51.130;13.658;2023-05-27T18:33:48;99896.22;;;15.14;58.05
76732;BME280;65656;51.130;13.658;2023-05-27T18:37:51;99899.69;;;14.89;60.98
76732;BME280;65656;51.130;13.658;2023-05-27T18:41:53;99903.97;;;14.70;59.41
76732;BME280;65656;51.130;13.658;2023-05-27T18:45:55;99907.09;;;14.46;63.01
76732;BME280;65656;51.130;13.658;2023-05-27T18:49:57;99907.69;;;14.21;65.69
76732;BME280;65656;51.130;13.658;2023-05-27T18:54:01;99910.75;;;13.93;64.90
76732;BME280;65656;51.130;13.658;2023-05-27T18:58:03;99911.28;;;13.68;68.01
76732;BME280;65656;51.130;13.658;2023-05-27T19:02:04;99905.44;;;13.37;69.44
76732;BME280;65656;51.130;13.658;2023-05-27T19:06:06;99909.50;;;13.13;69.97
76732;BME280;65656;51.130;13.658;2023-05-27T19:10:10;99907.50;;;12.87;66.95
76732;BME280;65656;51.130;13.658;2023-05-27T19:14:11;99919.78;;;12.62;71.53
76732;BME280;65656;51.130;13.658;2023-05-27T19:18:13;99924.13;;;12.41;71.46
76732;BME280;65656;51.130;13.658;2023-05-27T19:22:15;99917.44;;;12.20;70.73
76732;BME280;65656;51.130;13.658;2023-05-27T19:26:18;99917.78;;;12.07;72.14
76732;BME280;65656;51.130;13.658;2023-05-27T19:30:20;99927.41;;;11.93;74.51
76732;BME280;65656;51.130;13.658;2023-05-27T19:34:23;99927.09;;;11.78;74.36
76732;BME280;65656;51.130;13.658;2023-05-27T19:38:24;99921.31;;;11.62;74.88
76732;BME280;65656;51.130;13.658;2023-05-27T19:42:27;99924.72;;;11.41;76.12
76732;BME280;65656;51.130;13.658;2023-05-27T19:46:29;99918.75;;;11.44;75.40
76732;BME280;65656;51.130;13.658;2023-05-27T19:50:30;99921.84;;;11.36;78.39
76732;BME280;65656;51.130;13.658;2023-05-27T19:54:32;99914.38;;;11.20;77.95
76732;BME280;65656;51.130;13.658;2023-05-27T19:58:35;99916.78;;;11.04;79.54
76732;BME280;65656;51.130;13.658;2023-05-27T20:02:36;99916.47;;;10.89;79.58
76732;BME280;65656;51.130;13.658;2023-05-27T20:06:38;99921.00;;;10.72;81.56
76732;BME280;65656;51.130;13.658;2023-05-27T20:10:40;99919.94;;;10.61;82.26
76732;BME280;65656;51.130;13.658;2023-05-27T20:14:43;99916.09;;;10.50;85.60
76732;BME280;65656;51.130;13.658;2023-05-27T20:18:44;99927.19;;;10.32;85.31
76732;BME280;65656;51.130;13.658;2023-05-27T20:22:46;99915.34;;;10.20;84.06
76732;BME280;65656;51.130;13.658;2023-05-27T20:26:48;99915.06;;;10.10;84.65
76732;BME280;65656;51.130;13.658;2023-05-27T20:30:51;99922.56;;;10.02;88.26
76732;BME280;65656;51.130;13.658;2023-05-27T20:34:53;99925.88;;;9.93;86.87
76732;BME280;65656;51.130;13.658;2023-05-27T20:38:54;99920.25;;;9.88;93.27
76732;BME280;65656;51.130;13.658;2023-05-27T20:42:56;99924.47;;;9.72;89.79
76732;BME280;65656;51.130;13.658;2023-05-27T20:46:59;99918.91;;;9.67;89.20
76732;BME280;65656;51.130;13.658;2023-05-27T20:51:01;99919.63;;;9.74;90.15
76732;BME280;65656;51.130;13.658;2023-05-27T20:55:03;99921.31;;;9.75;90.93